Time;durP1;ratioP1;P1;durP2;ratioP2;P2;SDS_P1;SDS_P2;PMS_P1;PMS_P2;Temp;Humidity;BMP_temperature;BMP_pressure;BME280_temperature;BME280_humidity;BME280_pressure;Samples;Min_cycle;Max_cycle;Signal;HPM_P1;HPM_P2
2022/01/04 00:02:03;;;;;;;21.00;5.10;;;7.70;99.90;;;;;;2113310;67;20197;-85
2022/01/04 00:04:41;;;;;;;17.08;5.80;;;7.70;99.90;;;;;;2129529;67;20264;-85
2022/01/04 00:07:20;;;;;;;12.52;5.60;;;7.70;99.90;;;;;;2145246;66;20202;-84
2022/01/04 00:09:57;;;;;;;17.48;5.65;;;7.70;99.90;;;;;;2169031;66;20169;-84
2022/01/04 00:15:43;;;;;;;22.83;6.55;;;7.60;99.90;;;;;;2172778;65;20184;-83
2022/01/04 00:18:21;;;;;;;17.10;6.28;;;7.60;99.90;;;;;;2172875;66;20224;-83
2022/01/04 00:20:58;;;;;;;21.92;5.90;;;7.50;99.90;;;;;;2199284;65;20225;-85
2022/01/04 00:23:49;;;;;;;13.82;4.60;;;7.50;99.90;;;;;;2195933;65;20207;-88
2022/01/04 00:26:28;;;;;;;22.33;6.20;;;7.50;99.90;;;;;;2204639;65;20342;-84
2022/01/04 00:29:04;;;;;;;19.63;6.28;;;7.40;99.90;;;;;;2207240;64;20192;-85
2022/01/04 00:31:41;;;;;;;19.77;6.28;;;7.40;99.90;;;;;;2207395;65;20225;-85
2022/01/04 00:34:17;;;;;;;20.20;5.78;;;7.40;99.90;;;;;;2219782;64;20234;-85
2022/01/04 00:37:11;;;;;;;16.80;6.65;;;7.30;99.90;;;;;;2218215;64;20183;-85
2022/01/04 00:39:47;;;;;;;18.60;6.55;;;7.40;99.90;;;;;;2218416;64;20172;-85
2022/01/04 00:42:38;;;;;;;15.77;5.40;;;7.40;99.90;;;;;;2226200;64;20347;-85
2022/01/04 00:45:14;;;;;;;19.30;6.05;;;7.40;99.90;;;;;;2231611;64;20210;-84
2022/01/04 00:50:31;;;;;;;22.75;7.00;;;7.50;99.90;;;;;;2227781;64;20620;-83
2022/01/04 00:53:06;;;;;;;24.33;8.02;;;7.50;99.90;;;;;;2229099;64;20221;-85
2022/01/04 00:55:44;;;;;;;20.02;6.88;;;7.50;99.90;;;;;;2230402;64;20199;-85
2022/01/04 00:58:38;;;;;;;21.27;7.47;;;7.40;99.90;;;;;;2224220;64;20171;-86
2022/01/04 01:01:28;;;;;;;20.52;6.50;;;7.50;99.90;;;;;;2227731;64;20434;-85
2022/01/04 01:04:11;;;;;;;21.00;7.45;;;7.40;99.90;;;;;;2230974;64;20162;-85
2022/01/04 01:07:01;;;;;;;24.00;7.57;;;7.40;99.90;;;;;;2215136;64;20252;-85
2022/01/04 01:12:55;;;;;;;23.00;8.00;;;7.50;99.90;;;;;;2200339;65;20178;-85
2022/01/04 01:15:37;;;;;;;31.15;8.32;;;7.70;99.90;;;;;;2207759;65;20345;-86
2022/01/04 01:18:18;;;;;;;21.67;7.00;;;7.50;99.90;;;;;;2207508;64;20219;-85
2022/01/04 01:20:59;;;;;;;22.42;7.80;;;7.50;99.90;;;;;;2204287;64;20270;-88
2022/01/04 01:23:40;;;;;;;20.15;7.47;;;7.50;99.90;;;;;;2201832;64;20173;-85
2022/01/04 01:26:16;;;;;;;19.83;7.80;;;7.50;99.90;;;;;;2226666;64;20227;-85
2022/01/04 01:28:52;;;;;;;21.95;7.78;;;7.50;99.90;;;;;;2230564;64;20167;-84
2022/01/04 01:31:30;;;;;;;23.15;8.27;;;7.60;99.90;;;;;;2238560;64;20697;-86
2022/01/04 01:34:07;;;;;;;21.63;9.23;;;7.60;99.90;;;;;;2232587;64;20251;-85
2022/01/04 01:36:46;;;;;;;23.67;7.85;;;7.60;99.90;;;;;;2239568;64;20235;-85
2022/01/04 01:39:39;;;;;;;18.38;7.75;;;7.60;99.90;;;;;;2228227;64;20155;-85
2022/01/04 01:42:30;;;;;;;22.88;8.32;;;7.70;99.90;;;;;;2229101;64;20195;-85
2022/01/04 01:45:09;;;;;;;25.67;8.18;;;7.70;99.90;;;;;;2230887;64;20173;-84
2022/01/04 01:47:45;;;;;;;24.65;8.73;;;7.70;99.90;;;;;;2224878;64;20188;-82
2022/01/04 01:50:36;;;;;;;20.05;7.40;;;7.70;99.90;;;;;;2211978;65;20253;-84
2022/01/04 01:53:18;;;;;;;20.27;6.95;;;7.80;99.90;;;;;;2207086;65;20265;-84
2022/01/04 01:55:58;;;;;;;23.58;8.48;;;7.80;99.90;;;;;;2207375;65;20709;-85
2022/01/04 01:58:34;;;;;;;24.33;8.40;;;7.80;99.90;;;;;;2207366;65;20266;-85
2022/01/04 02:01:11;;;;;;;19.77;8.25;;;7.80;99.90;;;;;;2206526;65;20279;-84
2022/01/04 02:04:02;;;;;;;29.38;8.43;;;7.90;99.90;;;;;;2198671;65;20225;-85
2022/01/04 02:06:42;;;;;;;18.40;7.57;;;7.80;99.90;;;;;;2189382;65;20300;-84
2022/01/04 02:09:40;;;;;;;23.55;8.00;;;7.80;99.90;;;;;;2200823;65;20652;-84
2022/01/04 02:12:40;;;;;;;20.98;7.65;;;7.70;99.90;;;;;;2188800;65;20199;-84
2022/01/04 02:15:33;;;;;;;22.10;7.97;;;7.70;99.90;;;;;;2173402;65;20318;-86
2022/01/04 02:18:26;;;;;;;17.98;6.07;;;7.60;99.90;;;;;;2167726;66;20303;-84
2022/01/04 02:21:02;;;;;;;23.88;6.78;;;7.60;99.90;;;;;;2169123;66;20198;-84
2022/01/04 02:23:43;;;;;;;21.50;7.22;;;7.70;99.90;;;;;;2169340;66;20326;-83
2022/01/04 02:26:34;;;;;;;22.40;8.15;;;7.70;99.90;;;;;;2169530;66;20260;-84
2022/01/04 02:29:12;;;;;;;21.38;7.57;;;7.60;99.90;;;;;;2174088;66;20211;-83
2022/01/04 02:31:51;;;;;;;22.60;7.50;;;7.60;99.90;;;;;;2197983;65;20216;-84
2022/01/04 02:34:28;;;;;;;19.50;7.95;;;8.30;99.90;;;;;;2205378;65;20271;-85
2022/01/04 02:37:25;;;;;;;27.23;8.70;;;7.70;99.90;;;;;;2210398;64;20247;-84
2022/01/04 02:40:01;;;;;;;23.45;7.10;;;7.60;99.90;;;;;;2205908;65;20233;-85
2022/01/04 02:42:54;;;;;;;20.55;7.05;;;7.70;99.90;;;;;;2195579;65;20217;-83
2022/01/04 02:45:35;;;;;;;22.42;7.75;;;7.70;99.90;;;;;;2205749;65;20189;-84
2022/01/04 02:48:14;;;;;;;22.15;7.30;;;7.70;99.90;;;;;;2206602;65;20374;-84
2022/01/04 02:50:50;;;;;;;17.73;7.38;;;7.70;99.90;;;;;;2206208;65;20173;-82
2022/01/04 02:53:26;;;;;;;14.77;6.25;;;7.70;99.90;;;;;;2205506;65;20220;-82
2022/01/04 02:56:08;;;;;;;20.27;7.05;;;7.80;99.90;;;;;;2216379;64;20176;-85
2022/01/04 02:58:51;;;;;;;15.25;6.65;;;7.80;99.90;;;;;;2198839;65;20207;-84
2022/01/04 03:01:33;;;;;;;23.65;6.90;;;7.80;99.90;;;;;;2201946;65;20565;-84
2022/01/04 03:04:17;;;;;;;19.35;6.20;;;7.90;99.90;;;;;;2197921;65;20127;-83
2022/01/04 03:07:02;;;;;;;;;;;7.80;99.90;;;;;;2198985;65;20422;-84
2022/01/04 03:09:45;;;;;;;20.73;7.25;;;7.90;99.90;;;;;;2198419;65;20050;-83
2022/01/04 03:12:30;;;;;;;25.63;7.30;;;7.90;99.90;;;;;;2182124;65;20183;-83
2022/01/04 03:15:15;;;;;;;24.35;8.00;;;7.90;99.90;;;;;;2175108;66;20252;-84
2022/01/04 03:17:57;;;;;;;18.05;7.05;;;7.30;99.90;;;;;;2174350;66;20231;-83
2022/01/04 03:20:39;;;;;;;22.33;7.80;;;8.00;99.90;;;;;;2160723;66;20387;-81
2022/01/04 03:23:21;;;;;;;20.00;7.38;;;7.90;99.90;;;;;;2153863;66;20198;-83
2022/01/04 03:26:04;;;;;;;21.88;6.93;;;7.90;99.90;;;;;;2151607;66;20340;-83
2022/01/04 03:28:50;;;;;;;21.63;7.45;;;7.90;99.90;;;;;;2123638;67;20299;-84
2022/01/04 03:31:35;;;;;;;20.88;7.53;;;7.90;99.90;;;;;;2126884;67;20212;-83
2022/01/04 03:34:20;;;;;;;18.95;7.85;;;7.90;99.90;;;;;;2154965;66;20302;-83
2022/01/04 03:37:05;;;;;;;25.10;8.32;;;7.90;99.90;;;;;;2162516;66;20172;-84
2022/01/04 03:39:47;;;;;;;20.85;7.43;;;7.90;99.90;;;;;;2149302;66;20241;-84
2022/01/04 03:42:29;;;;;;;25.40;7.93;;;8.00;99.90;;;;;;2148670;66;20196;-85
2022/01/04 03:45:02;;;;;;;16.55;7.60;;;8.00;99.90;;;;;;2155276;66;20257;-84
2022/01/04 03:47:39;;;;;;;21.13;7.43;;;8.00;99.90;;;;;;2148084;66;20218;-84
2022/01/04 03:50:31;;;;;;;23.02;8.55;;;8.00;99.90;;;;;;2139799;67;20283;-84
2022/01/04 03:53:10;;;;;;;24.33;7.60;;;8.00;99.90;;;;;;2139959;66;20639;-83
2022/01/04 03:56:01;;;;;;;20.55;7.07;;;8.00;99.90;;;;;;2129534;67;20209;-85
2022/01/04 03:58:41;;;;;;;29.08;7.60;;;8.10;99.90;;;;;;2119947;67;20615;-84
2022/01/04 04:01:19;;;;;;;22.30;7.30;;;8.00;99.90;;;;;;2133069;67;20329;-85
2022/01/04 04:04:11;;;;;;;23.50;8.50;;;8.00;99.90;;;;;;2147126;66;20301;-83
2022/01/04 04:06:47;;;;;;;30.80;8.38;;;8.10;99.90;;;;;;2149738;66;20174;-86
2022/01/04 04:09:28;;;;;;;23.33;7.88;;;8.10;99.90;;;;;;2151075;66;20195;-84
2022/01/04 04:12:07;;;;;;;22.48;7.53;;;8.10;99.90;;;;;;2175167;65;20211;-84
2022/01/04 04:14:44;;;;;;;19.95;6.65;;;8.10;99.90;;;;;;2206745;64;20279;-85
2022/01/04 04:17:20;;;;;;;29.38;7.22;;;8.00;99.90;;;;;;2216917;64;20171;-84
2022/01/04 04:19:56;;;;;;;20.50;7.85;;;8.20;99.90;;;;;;2214956;64;20208;-84
2022/01/04 04:22:32;;;;;;;27.55;7.93;;;8.00;99.90;;;;;;2215112;64;20609;-83
2022/01/04 04:25:09;;;;;;;18.92;6.63;;;8.00;99.90;;;;;;2215937;64;20320;-85
2022/01/04 04:27:59;;;;;;;22.65;8.27;;;8.00;99.90;;;;;;2209211;64;20176;-85
2022/01/04 04:30:35;;;;;;;18.83;8.35;;;8.00;99.90;;;;;;2220748;64;20693;-85
2022/01/04 04:33:11;;;;;;;21.95;9.00;;;8.10;99.90;;;;;;2216368;64;20180;-84
2022/01/04 04:35:47;;;;;;;21.75;8.45;;;8.00;99.90;;;;;;2219813;64;20180;-84
2022/01/04 04:38:39;;;;;;;22.83;8.93;;;8.00;99.90;;;;;;2215509;64;20274;-84
2022/01/04 04:41:17;;;;;;;26.60;8.95;;;8.00;99.90;;;;;;2216572;64;20700;-84
2022/01/04 04:43:56;;;;;;;20.15;8.90;;;8.00;99.90;;;;;;2216576;64;20197;-84
2022/01/04 04:46:38;;;;;;;19.50;7.43;;;8.30;99.90;;;;;;2206975;65;20259;-84
2022/01/04 04:49:19;;;;;;;22.83;8.57;;;7.90;99.90;;;;;;2202107;65;20265;-83
2022/01/04 04:52:01;;;;;;;19.67;8.63;;;7.90;99.90;;;;;;2196794;65;20269;-84
2022/01/04 04:54:43;;;;;;;22.17;10.00;;;7.90;99.90;;;;;;2189945;65;20362;-85
2022/01/04 04:57:25;;;;;;;18.70;9.07;;;7.90;99.90;;;;;;2182539;65;20186;-85
2022/01/04 05:00:10;;;;;;;36.58;10.38;;;7.90;99.90;;;;;;2171278;65;20179;-83
2022/01/04 05:02:55;;;;;;;24.88;9.30;;;7.90;99.90;;;;;;2156709;66;20877;-84
2022/01/04 05:05:37;;;;;;;36.33;9.27;;;7.90;99.90;;;;;;2162603;66;20245;-84
2022/01/04 05:08:19;;;;;;;22.70;9.15;;;8.00;99.90;;;;;;2145498;67;20392;-84
2022/01/04 05:11:02;;;;;;;24.35;9.35;;;7.90;99.90;;;;;;2141278;67;20205;-84
2022/01/04 05:13:44;;;;;;;21.42;8.75;;;7.90;99.90;;;;;;2126592;67;20408;-84
2022/01/04 05:16:26;;;;;;;26.42;11.95;;;7.90;99.90;;;;;;2126846;67;20200;-85
2022/01/04 05:19:13;;;;;;;22.45;9.73;;;8.00;99.90;;;;;;2112376;67;20410;-85
2022/01/04 05:21:56;;;;;;;19.65;10.13;;;8.00;99.90;;;;;;2111728;68;20245;-85
2022/01/04 05:24:41;;;;;;;24.40;10.90;;;8.00;99.90;;;;;;2101863;67;20154;-85
2022/01/04 05:27:26;;;;;;;23.65;10.77;;;8.00;99.90;;;;;;2113055;67;20313;-85
2022/01/04 05:30:12;;;;;;;24.80;11.70;;;8.00;99.90;;;;;;2104310;67;20270;-83
2022/01/04 05:32:54;;;;;;;30.00;11.32;;;8.00;99.90;;;;;;2093744;68;20355;-81
2022/01/04 05:35:36;;;;;;;23.95;10.10;;;7.90;99.90;;;;;;2113476;67;20178;-83
2022/01/04 05:38:19;;;;;;;24.83;10.43;;;7.90;99.90;;;;;;2127991;66;20153;-84
2022/01/04 05:41:10;;;;;;;26.90;8.73;;;7.90;99.90;;;;;;2130886;66;20199;-84
2022/01/04 05:43:53;;;;;;;33.47;10.07;;;7.80;99.90;;;;;;2138406;66;20188;-83
2022/01/04 05:46:41;;;;;;;26.13;10.43;;;7.80;99.90;;;;;;2151189;66;20182;-82
2022/01/04 05:49:27;;;;;;;22.65;10.13;;;7.80;99.90;;;;;;2143027;67;20371;-84
2022/01/04 05:52:11;;;;;;;30.25;10.75;;;8.00;99.90;;;;;;2156628;66;20174;-84
2022/01/04 05:54:53;;;;;;;24.83;10.35;;;7.70;99.90;;;;;;2151674;66;20183;-82
2022/01/04 05:57:35;;;;;;;26.38;11.65;;;7.60;99.90;;;;;;2145083;66;20190;-85
2022/01/04 06:00:19;;;;;;;28.60;11.10;;;7.60;99.90;;;;;;2157430;66;20234;-83
2022/01/04 06:03:01;;;;;;;26.90;11.32;;;7.60;99.90;;;;;;2149124;66;20195;-83
2022/01/04 06:05:46;;;;;;;32.55;11.48;;;7.60;99.90;;;;;;2142717;66;20187;-84
2022/01/04 06:08:33;;;;;;;26.20;11.55;;;7.60;99.90;;;;;;2148662;67;20301;-84
2022/01/04 06:11:54;;;;;;;;;;;7.60;99.90;;;;;;2149225;67;20324;-84
2022/01/04 06:14:51;;;;;;;28.73;12.27;;;7.60;99.90;;;;;;2153727;66;20117;-83
2022/01/04 06:17:34;;;;;;;25.85;11.00;;;7.60;99.90;;;;;;2153459;66;20206;-84
2022/01/04 06:20:20;;;;;;;31.15;11.10;;;7.70;99.90;;;;;;2158889;66;20224;-82
2022/01/04 06:23:03;;;;;;;20.27;9.95;;;7.70;99.90;;;;;;2166694;66;20313;-86
2022/01/04 06:25:46;;;;;;;20.90;10.02;;;7.70;99.90;;;;;;2175084;66;20250;-83
2022/01/04 06:28:31;;;;;;;32.00;10.20;;;7.80;99.90;;;;;;2182397;65;20212;-84
2022/01/04 06:31:13;;;;;;;23.63;10.45;;;7.80;99.90;;;;;;2161831;66;20313;-84
2022/01/04 06:33:54;;;;;;;24.15;9.73;;;7.80;99.90;;;;;;2153373;66;20638;-83
2022/01/04 06:36:36;;;;;;;22.25;9.10;;;7.90;99.90;;;;;;2151320;66;20178;-83
2022/01/04 06:39:20;;;;;;;22.98;9.43;;;7.80;99.90;;;;;;2149669;66;20191;-80
2022/01/04 06:42:02;;;;;;;28.08;9.32;;;7.90;99.90;;;;;;2151294;66;20202;-83
2022/01/04 06:44:44;;;;;;;22.77;9.43;;;7.90;99.90;;;;;;2159279;66;20258;-83
2022/01/04 06:47:33;;;;;;;25.83;9.23;;;7.90;99.90;;;;;;2145127;67;20452;-84
2022/01/04 06:50:19;;;;;;;30.25;10.15;;;7.80;99.90;;;;;;2143520;66;20186;-81
2022/01/04 06:53:04;;;;;;;20.55;8.13;;;7.80;99.90;;;;;;2151951;66;20217;-83
2022/01/04 06:55:50;;;;;;;27.95;7.22;;;7.70;99.90;;;;;;2137986;67;20330;-83
2022/01/04 06:58:33;;;;;;;20.57;7.57;;;8.50;99.90;;;;;;2137372;67;20319;-83
2022/01/04 07:01:17;;;;;;;;;;;7.80;99.90;;;;;;2135167;66;20430;-80
2022/01/04 07:04:03;;;;;;;17.65;6.30;;;7.80;99.90;;;;;;2142737;67;20146;-84
2022/01/04 07:06:48;;;;;;;19.70;5.28;;;7.70;99.90;;;;;;2139896;67;20605;-83
2022/01/04 07:09:30;;;;;;;14.25;6.82;;;8.10;99.90;;;;;;2119154;67;20411;-83
2022/01/04 07:12:12;;;;;;;22.35;7.72;;;7.70;99.90;;;;;;2122957;67;20284;-82
2022/01/04 07:14:49;;;;;;;25.30;8.50;;;7.70;99.90;;;;;;2118217;67;20219;-81
2022/01/04 07:17:34;;;;;;;29.90;10.70;;;7.40;99.90;;;;;;2110965;67;20233;-81
2022/01/04 07:20:16;;;;;;;24.25;8.35;;;7.60;99.90;;;;;;2144310;66;20191;-80
2022/01/04 07:22:58;;;;;;;24.80;9.02;;;7.50;99.90;;;;;;2139326;67;20212;-83
2022/01/04 07:25:40;;;;;;;25.23;10.00;;;7.50;99.90;;;;;;2144812;66;20196;-80
2022/01/04 07:28:23;;;;;;;23.40;8.90;;;7.50;99.90;;;;;;2149921;66;20289;-80
2022/01/04 07:31:10;;;;;;;17.17;8.85;;;7.50;99.90;;;;;;2147425;66;20300;-80
2022/01/04 07:33:55;;;;;;;21.85;8.75;;;7.50;99.90;;;;;;2129131;67;20430;-78
2022/01/04 07:36:37;;;;;;;25.27;9.85;;;7.50;99.90;;;;;;2121213;67;20772;-80
2022/01/04 07:39:19;;;;;;;23.65;9.00;;;7.50;99.90;;;;;;2142152;66;20857;-81
2022/01/04 07:42:02;;;;;;;19.42;8.40;;;7.50;99.90;;;;;;2142067;66;20182;-80
2022/01/04 07:44:45;;;;;;;27.40;10.40;;;7.50;99.90;;;;;;2147489;66;20270;-80
2022/01/04 07:47:30;;;;;;;;;;;7.40;99.90;;;;;;2143913;66;20291;-81
2022/01/04 07:50:12;;;;;;;21.98;8.32;;;7.50;99.90;;;;;;2154637;66;20672;-79
2022/01/04 07:52:54;;;;;;;24.48;8.10;;;7.40;99.90;;;;;;2140167;66;20266;-79
2022/01/04 07:55:36;;;;;;;22.83;7.82;;;7.40;99.90;;;;;;2139962;66;20255;-78
2022/01/04 07:58:23;;;;;;;20.37;7.33;;;7.50;99.90;;;;;;2139333;66;20355;-81
2022/01/04 08:01:27;;;;;;;16.73;7.40;;;7.40;99.90;;;;;;2136173;66;20317;-81
2022/01/04 08:04:09;;;;;;;29.05;8.63;;;7.40;99.90;;;;;;2137581;66;20319;-82
2022/01/04 08:06:51;;;;;;;18.88;8.90;;;7.30;99.90;;;;;;2158340;66;20342;-80
2022/01/04 08:09:35;;;;;;;25.95;9.73;;;7.30;99.90;;;;;;2159236;66;20673;-81
2022/01/04 08:12:20;;;;;;;24.10;8.38;;;7.30;99.90;;;;;;2146070;66;20214;-80
2022/01/04 08:15:03;;;;;;;17.77;7.65;;;7.30;99.90;;;;;;2159745;66;20256;-80
2022/01/04 08:17:45;;;;;;;20.88;7.75;;;7.30;99.90;;;;;;2150929;66;20244;-80
2022/01/04 08:20:28;;;;;;;23.08;7.63;;;7.80;99.90;;;;;;2148993;66;20264;-76
2022/01/04 08:23:09;;;;;;;25.10;8.60;;;7.30;99.90;;;;;;2146421;66;20296;-71
2022/01/04 08:25:59;;;;;;;22.48;7.55;;;7.30;99.90;;;;;;2141981;66;20246;-72
2022/01/04 08:28:40;;;;;;;24.58;8.25;;;7.30;99.90;;;;;;2148281;66;20208;-75
2022/01/04 08:31:20;;;;;;;17.50;6.55;;;7.30;99.90;;;;;;2148263;66;20374;-74
2022/01/04 08:34:00;;;;;;;19.48;7.53;;;7.30;99.90;;;;;;2154972;66;20178;-73
2022/01/04 08:36:40;;;;;;;28.83;8.77;;;7.30;99.90;;;;;;2160225;66;20194;-74
2022/01/04 08:39:20;;;;;;;17.45;8.55;;;7.30;99.90;;;;;;2161567;66;20627;-74
2022/01/04 08:42:12;;;;;;;21.77;7.53;;;7.30;99.90;;;;;;2161840;66;20339;-75
2022/01/04 08:44:52;;;;;;;21.52;8.48;;;7.30;99.90;;;;;;2172132;65;20193;-76
2022/01/04 08:47:28;;;;;;;21.63;7.97;;;7.30;99.90;;;;;;2190521;65;20452;-74
2022/01/04 08:50:20;;;;;;;19.23;8.25;;;7.30;99.90;;;;;;2177061;65;20705;-74
2022/01/04 08:53:00;;;;;;;21.27;7.85;;;7.30;99.90;;;;;;2192557;65;20238;-75
2022/01/04 08:55:50;;;;;;;15.02;5.70;;;7.30;99.90;;;;;;2196535;64;20341;-74
2022/01/04 08:58:28;;;;;;;9.93;3.15;;;7.30;99.90;;;;;;2207232;65;20259;-75
2022/01/04 09:01:04;;;;;;;6.80;2.60;;;7.30;99.90;;;;;;2212925;64;20187;-76
2022/01/04 09:03:42;;;;;;;7.53;2.90;;;7.20;99.90;;;;;;2214601;64;20188;-75
2022/01/04 09:06:22;;;;;;;5.65;1.88;;;7.10;99.90;;;;;;2212396;64;20268;-76
2022/01/04 09:09:00;;;;;;;5.90;2.20;;;7.00;99.90;;;;;;2221644;64;20724;-75
2022/01/04 09:11:40;;;;;;;7.60;2.30;;;7.00;99.90;;;;;;2226070;64;20230;-74
2022/01/04 09:20:19;;;;;;;7.80;1.92;;;6.80;99.90;;;;;;2199067;65;20166;-73
2022/01/04 09:23:10;;;;;;;5.20;1.23;;;6.70;99.90;;;;;;2185617;65;20776;-73
2022/01/04 09:25:53;;;;;;;6.75;1.08;;;6.70;99.90;;;;;;2176512;65;20242;-74
2022/01/04 09:28:35;;;;;;;7.05;1.42;;;6.70;99.90;;;;;;2168973;66;20268;-75
2022/01/04 09:31:43;;;;;;;3.25;1.52;;;6.60;99.90;;;;;;2162130;66;20417;-74
2022/01/04 09:34:29;;;;;;;7.72;2.10;;;6.60;99.90;;;;;;2169254;66;20188;-74
2022/01/04 09:37:18;;;;;;;7.75;2.05;;;6.60;99.90;;;;;;2143488;66;20257;-73
2022/01/04 09:40:03;;;;;;;4.40;1.95;;;6.70;99.90;;;;;;2124782;67;20236;-74
2022/01/04 09:42:48;;;;;;;6.68;1.20;;;6.70;99.90;;;;;;2131954;67;20772;-74
2022/01/04 09:45:37;;;;;;;2.78;1.33;;;6.70;99.90;;;;;;2130645;67;20235;-73
2022/01/04 09:48:23;;;;;;;2.45;1.17;;;6.70;99.90;;;;;;2121162;67;20188;-75
2022/01/04 09:51:10;;;;;;;6.68;1.15;;;6.60;99.90;;;;;;2118518;67;20199;-74
2022/01/04 09:53:53;;;;;;;5.43;1.35;;;6.70;99.90;;;;;;2125025;67;20455;-73
2022/01/04 09:56:37;;;;;;;;;;;6.60;99.90;;;;;;2118929;67;20804;-75
2022/01/04 09:59:19;;;;;;;3.00;1.33;;;6.60;99.90;;;;;;2103840;68;20132;-75
2022/01/04 10:02:16;;;;;;;5.30;1.70;;;6.60;99.90;;;;;;2094774;68;20187;-76
2022/01/04 10:05:20;;;;;;;4.00;0.98;;;6.60;99.90;;;;;;2107379;67;20764;-72
2022/01/04 10:08:08;;;;;;;4.55;1.63;;;6.50;99.90;;;;;;2110080;67;20495;-73
2022/01/04 10:11:01;;;;;;;6.00;1.00;;;6.50;99.90;;;;;;2111746;67;20230;-83
2022/01/04 10:13:38;;;;;;;3.90;1.02;;;6.40;99.90;;;;;;2115794;67;20210;-76
2022/01/04 10:16:31;;;;;;;6.63;2.45;;;6.30;99.90;;;;;;2116284;67;20215;-72
2022/01/04 10:19:07;;;;;;;3.72;0.80;;;6.50;99.90;;;;;;2108200;67;20178;-73
2022/01/04 10:21:44;;;;;;;4.40;0.85;;;6.30;99.90;;;;;;2113480;67;20191;-74
2022/01/04 10:24:21;;;;;;;3.55;0.60;;;6.20;99.90;;;;;;2128450;67;20299;-75
2022/01/04 10:27:23;;;;;;;5.70;0.82;;;6.20;99.90;;;;;;2141567;66;20241;-76
2022/01/04 10:30:24;;;;;;;1.42;0.60;;;6.20;99.90;;;;;;2154438;66;20276;-74
2022/01/04 10:33:09;;;;;;;3.47;0.70;;;6.10;99.90;;;;;;2161055;66;20189;-75
2022/01/04 10:35:54;;;;;;;4.25;0.75;;;6.10;99.90;;;;;;2192184;65;20237;-72
2022/01/04 10:38:46;;;;;;;4.43;0.80;;;6.20;99.90;;;;;;2194476;65;20251;-73
2022/01/04 10:41:26;;;;;;;2.10;0.57;;;6.20;99.90;;;;;;2209762;64;20329;-74
2022/01/04 10:44:32;;;;;;;1.38;0.60;;;6.30;99.90;;;;;;2211406;64;20645;-74
2022/01/04 10:47:13;;;;;;;4.97;0.73;;;6.30;99.90;;;;;;2212397;64;20176;-72
2022/01/04 10:49:51;;;;;;;4.00;1.02;;;6.20;99.90;;;;;;2209576;64;20205;-73
2022/01/04 10:52:33;;;;;;;1.20;0.70;;;6.30;99.90;;;;;;2210249;64;20194;-73
2022/01/04 10:55:15;;;;;;;1.50;0.40;;;6.60;99.90;;;;;;2207435;64;20157;-73
2022/01/04 10:57:52;;;;;;;0.98;0.35;;;6.30;99.90;;;;;;2225439;64;20215;-72
2022/01/04 11:00:28;;;;;;;1.33;0.25;;;6.40;99.90;;;;;;2230523;64;20375;-74
2022/01/04 11:03:05;;;;;;;1.13;0.13;;;6.40;99.90;;;;;;2235024;63;20222;-72
2022/01/04 11:05:41;;;;;;;2.70;0.32;;;7.00;99.90;;;;;;2237749;63;20273;-74
2022/01/04 11:08:17;;;;;;;1.67;0.38;;;6.40;99.90;;;;;;2237126;63;20197;-74
2022/01/04 11:10:55;;;;;;;2.00;0.30;;;6.40;99.90;;;;;;2241119;63;20262;-74
2022/01/04 11:13:33;;;;;;;0.55;0.40;;;6.30;99.90;;;;;;2239345;63;20175;-74
2022/01/04 11:16:22;;;;;;;1.73;0.60;;;6.30;99.90;;;;;;2228307;64;20212;-74
2022/01/04 11:19:04;;;;;;;2.72;0.75;;;6.30;99.90;;;;;;2213949;64;20395;-73
2022/01/04 11:21:49;;;;;;;3.20;0.90;;;6.30;99.90;;;;;;2194622;65;20291;-72
2022/01/04 11:24:35;;;;;;;7.43;1.17;;;6.20;99.90;;;;;;2191418;65;20281;-73
2022/01/04 11:27:20;;;;;;;5.15;1.75;;;6.20;99.90;;;;;;2191094;65;20305;-74
2022/01/04 11:30:18;;;;;;;5.15;1.27;;;6.20;99.90;;;;;;2186694;65;20234;-75
2022/01/04 11:33:43;;;;;;;5.15;1.10;;;6.30;99.90;;;;;;2175702;65;20254;-75
2022/01/04 11:36:28;;;;;;;6.05;1.30;;;6.40;99.90;;;;;;2165492;65;20184;-74
2022/01/04 11:39:35;;;;;;;4.10;0.70;;;6.40;99.90;;;;;;2164906;65;21004;-72
2022/01/04 11:42:34;;;;;;;3.70;1.02;;;6.40;99.90;;;;;;2166786;65;20667;-71
2022/01/04 11:45:18;;;;;;;4.10;0.47;;;6.40;99.90;;;;;;2159975;66;20246;-71
2022/01/04 11:48:01;;;;;;;1.23;0.60;;;6.40;99.90;;;;;;2140586;66;20675;-76
2022/01/04 11:50:45;;;;;;;9.35;2.50;;;6.40;99.90;;;;;;2145408;66;20198;-77
2022/01/04 11:53:30;;;;;;;4.78;0.98;;;6.40;99.90;;;;;;2146137;66;20182;-75
2022/01/04 11:56:10;;;;;;;4.55;0.77;;;6.50;99.90;;;;;;2138870;66;20315;-77
2022/01/04 11:58:54;;;;;;;2.25;0.65;;;6.50;99.90;;;;;;2138059;66;20322;-75
2022/01/04 12:01:32;;;;;;;4.22;1.05;;;6.50;99.90;;;;;;2159010;66;20240;-79
2022/01/04 12:04:12;;;;;;;6.03;1.63;;;6.50;99.90;;;;;;2162779;66;20316;-74
2022/01/04 12:06:53;;;;;;;5.05;1.27;;;6.70;99.90;;;;;;2164138;65;20219;-76
2022/01/04 12:09:32;;;;;;;7.97;1.20;;;6.70;99.90;;;;;;2169906;65;20270;-76
2022/01/04 12:12:30;;;;;;;2.38;0.80;;;6.80;99.90;;;;;;2183851;65;20222;-75
2022/01/04 12:15:32;;;;;;;1.73;0.90;;;6.80;99.90;;;;;;2182721;65;20212;-74
2022/01/04 12:18:46;;;;;;;6.63;1.10;;;6.80;99.90;;;;;;2196921;64;20202;-75
2022/01/04 12:21:28;;;;;;;3.10;1.05;;;6.90;99.90;;;;;;2214574;64;20505;-76
2022/01/04 12:24:06;;;;;;;3.35;0.98;;;6.80;99.90;;;;;;2218293;64;20731;-77
2022/01/04 12:26:43;;;;;;;3.42;1.00;;;6.90;99.90;;;;;;2233855;63;20230;-76
2022/01/04 12:29:25;;;;;;;9.73;1.45;;;6.90;99.90;;;;;;2237558;63;20217;-74
2022/01/04 12:32:04;;;;;;;4.70;1.20;;;6.90;99.90;;;;;;2237854;63;20178;-74
2022/01/04 12:35:01;;;;;;;7.07;1.55;;;6.90;99.90;;;;;;2232634;64;20158;-74
2022/01/04 12:37:57;;;;;;;7.20;1.20;;;6.90;99.90;;;;;;2222298;64;20336;-75
2022/01/04 12:40:32;;;;;;;5.22;1.20;;;6.90;99.90;;;;;;2224282;64;20249;-76
2022/01/04 12:43:27;;;;;;;2.45;1.13;;;6.70;99.90;;;;;;2207421;64;20232;-75
2022/01/04 12:46:04;;;;;;;9.45;1.58;;;6.60;99.90;;;;;;2206205;64;20180;-74
2022/01/04 12:48:57;;;;;;;9.30;1.00;;;6.60;99.90;;;;;;2207157;64;20714;-76
2022/01/04 12:51:59;;;;;;;3.63;1.10;;;6.60;99.90;;;;;;2204436;64;20681;-76
2022/01/04 12:54:42;;;;;;;5.22;1.20;;;6.60;99.90;;;;;;2191044;65;20331;-75
2022/01/04 12:57:26;;;;;;;4.97;1.10;;;6.60;99.90;;;;;;2198518;65;20282;-75
2022/01/04 13:00:14;;;;;;;6.68;1.40;;;6.60;99.90;;;;;;2202459;64;20274;-74
2022/01/04 13:02:58;;;;;;;2.92;1.20;;;6.60;99.90;;;;;;2219087;64;20381;-75
2022/01/04 13:06:01;;;;;;;3.40;1.27;;;6.60;99.90;;;;;;2209628;64;20874;-71
2022/01/04 13:08:55;;;;;;;5.47;1.35;;;6.50;99.90;;;;;;2196315;65;20335;-74
2022/01/04 13:11:50;;;;;;;4.60;1.13;;;6.60;99.90;;;;;;2183760;65;20314;-74
2022/01/04 13:14:33;;;;;;;5.78;0.93;;;6.60;99.90;;;;;;2161322;66;20318;-74
2022/01/04 13:17:16;;;;;;;2.72;1.15;;;6.40;99.90;;;;;;2139063;66;20218;-75
2022/01/04 13:19:58;;;;;;;5.65;1.17;;;6.40;99.90;;;;;;2139297;66;20241;-75
2022/01/04 13:22:39;;;;;;;5.30;1.15;;;6.40;99.90;;;;;;2132412;67;20226;-75
2022/01/04 13:25:21;;;;;;;3.10;1.30;;;6.50;99.90;;;;;;2114586;67;20346;-75
2022/01/04 13:28:08;;;;;;;4.63;1.08;;;6.50;99.90;;;;;;2100660;68;20333;-73
2022/01/04 13:30:53;;;;;;;8.75;1.58;;;6.50;99.90;;;;;;2097878;68;20178;-75
2022/01/04 13:33:38;;;;;;;3.22;1.13;;;6.50;99.90;;;;;;2097339;68;20261;-75
2022/01/04 13:36:24;;;;;;;10.48;1.98;;;6.50;99.90;;;;;;2085968;68;20188;-77
2022/01/04 13:39:10;;;;;;;4.72;1.00;;;6.60;99.90;;;;;;2093696;67;20499;-78
2022/01/04 13:41:51;;;;;;;5.15;1.17;;;6.60;99.90;;;;;;2125375;67;20224;-76
2022/01/04 13:44:33;;;;;;;6.18;0.93;;;6.60;99.90;;;;;;2133570;66;20167;-76
2022/01/04 13:47:18;;;;;;;1.95;0.98;;;6.70;99.90;;;;;;2132348;67;20180;-75
2022/01/04 13:50:16;;;;;;;2.85;1.20;;;7.20;99.90;;;;;;2142105;66;20278;-78
2022/01/04 13:53:00;;;;;;;4.75;1.38;;;7.40;99.90;;;;;;2126981;67;20711;-78
2022/01/04 13:55:59;;;;;;;5.05;1.20;;;7.60;99.90;;;;;;2121030;67;20273;-74
2022/01/04 13:58:40;;;;;;;8.57;1.60;;;7.50;99.90;;;;;;2131288;67;20707;-78
2022/01/04 14:01:39;;;;;;;8.18;1.20;;;7.40;99.90;;;;;;2152716;66;20293;-78
2022/01/04 14:04:23;;;;;;;6.90;1.48;;;7.20;99.90;;;;;;2154145;66;20356;-78
2022/01/04 14:07:14;;;;;;;5.78;1.40;;;6.60;99.90;;;;;;2139861;66;20225;-77
2022/01/04 14:09:59;;;;;;;3.55;1.00;;;6.90;99.90;;;;;;2139923;66;20315;-77
2022/01/04 14:12:43;;;;;;;6.30;1.40;;;6.90;99.90;;;;;;2141053;66;20215;-77
2022/01/04 14:15:28;;;;;;;7.97;1.00;;;7.00;99.90;;;;;;2137865;67;20218;-78
2022/01/04 14:18:10;;;;;;;4.70;1.40;;;6.70;99.90;;;;;;2146628;66;20286;-80
2022/01/04 14:20:55;;;;;;;5.40;1.40;;;6.60;99.90;;;;;;2139463;66;20218;-79
2022/01/04 14:23:43;;;;;;;5.55;1.35;;;6.50;99.90;;;;;;2144386;66;20778;-77
2022/01/04 14:26:27;;;;;;;5.05;1.45;;;6.40;99.90;;;;;;2155316;66;20210;-77
2022/01/04 14:29:10;;;;;;;5.30;1.27;;;6.30;99.90;;;;;;2158775;66;20268;-78
2022/01/04 14:32:04;;;;;;;6.45;2.40;;;6.30;99.90;;;;;;2165023;65;20782;-77
2022/01/04 14:34:47;;;;;;;3.72;1.60;;;6.20;99.90;;;;;;2167173;66;20192;-79